createdAt,value
2022-12-14T00:02:00.686Z,10.30
2022-12-14T00:04:29.291Z,10.30
2022-12-14T00:06:57.812Z,10.30
2022-12-14T00:09:27.663Z,10.30
2022-12-14T00:11:56.048Z,10.30
2022-12-14T00:14:24.494Z,10.30
2022-12-14T00:16:52.871Z,10.30
2022-12-14T00:19:21.195Z,10.30
2022-12-14T00:21:49.568Z,10.30
2022-12-14T00:24:17.982Z,10.30
2022-12-14T00:26:47.703Z,10.30
2022-12-14T00:29:16.095Z,10.30
2022-12-14T00:31:44.478Z,10.30
2022-12-14T00:34:17.364Z,10.40
2022-12-14T00:36:45.756Z,10.40
2022-12-14T00:39:14.150Z,10.40
2022-12-14T00:41:43.344Z,10.40
2022-12-14T00:44:13.052Z,10.40
2022-12-14T00:46:41.493Z,10.30
2022-12-14T00:49:10.881Z,10.30
2022-12-14T00:51:39.383Z,10.30
2022-12-14T00:54:08.019Z,10.30
2022-12-14T00:56:36.438Z,10.30
2022-12-14T00:59:04.800Z,10.30
2022-12-14T01:01:34.776Z,10.30
2022-12-14T01:06:57.612Z,10.30
2022-12-14T01:09:26.591Z,10.30
2022-12-14T01:11:54.967Z,10.30
2022-12-14T01:14:23.757Z,10.30
2022-12-14T01:16:52.201Z,10.30
2022-12-14T01:19:20.805Z,10.20
2022-12-14T01:21:49.203Z,10.20
2022-12-14T01:24:19.015Z,10.20
2022-12-14T01:26:47.391Z,10.20
2022-12-14T01:29:16.484Z,10.20
2022-12-14T01:31:45.029Z,10.20
2022-12-14T01:34:17.442Z,10.20
2022-12-14T01:36:46.009Z,10.30
2022-12-14T01:39:15.314Z,10.30
2022-12-14T01:41:45.940Z,10.30
2022-12-14T01:44:32.641Z,10.30
2022-12-14T01:47:06.131Z,10.30
2022-12-14T01:49:40.231Z,10.30
2022-12-14T01:52:10.961Z,10.30
2022-12-14T01:54:41.957Z,10.40
2022-12-14T01:57:20.561Z,10.40
2022-12-14T01:59:49.442Z,10.40
2022-12-14T02:02:18.775Z,10.50
2022-12-14T02:04:49.807Z,10.40
2022-12-14T02:07:18.801Z,10.40
2022-12-14T02:09:47.653Z,10.30
2022-12-14T02:12:20.424Z,10.40
2022-12-14T02:14:49.285Z,10.40
2022-12-14T02:17:17.912Z,10.40
2022-12-14T02:19:47.084Z,10.40
2022-12-14T02:22:23.793Z,10.40
2022-12-14T02:25:04.515Z,10.50
2022-12-14T02:27:45.665Z,10.50
2022-12-14T02:30:16.086Z,10.50
2022-12-14T02:32:52.247Z,10.50
2022-12-14T02:35:25.621Z,10.50
2022-12-14T02:37:58.673Z,10.50
2022-12-14T02:40:30.150Z,10.50
2022-12-14T02:43:04.274Z,10.50
2022-12-14T02:45:37.645Z,10.50
2022-12-14T02:48:07.985Z,10.50
2022-12-14T02:50:42.261Z,10.40
2022-12-14T02:53:15.647Z,10.40
2022-12-14T02:55:47.220Z,10.30
2022-12-14T02:58:17.300Z,10.30
2022-12-14T03:00:48.097Z,10.30
2022-12-14T03:03:16.981Z,10.30
2022-12-14T03:05:55.485Z,10.30
2022-12-14T03:08:25.645Z,10.30
2022-12-14T03:10:56.314Z,10.40
2022-12-14T03:13:26.454Z,10.40
2022-12-14T03:15:58.337Z,10.40
2022-12-14T03:18:28.569Z,10.40
2022-12-14T03:20:57.313Z,10.60
2022-12-14T03:23:28.027Z,10.60
2022-12-14T03:26:00.246Z,10.60
2022-12-14T03:28:31.761Z,10.60
2022-12-14T03:31:05.863Z,10.70
2022-12-14T03:33:34.809Z,10.70
2022-12-14T03:36:07.314Z,10.80
2022-12-14T03:38:37.388Z,10.70
2022-12-14T03:41:13.724Z,10.70
2022-12-14T03:43:49.687Z,10.70
2022-12-14T03:46:24.878Z,10.70
2022-12-14T03:48:54.995Z,10.70
2022-12-14T03:51:26.226Z,10.70
2022-12-14T03:54:00.500Z,10.70
2022-12-14T03:56:32.165Z,10.60
2022-12-14T03:59:03.763Z,10.70
2022-12-14T04:01:39.473Z,10.60
2022-12-14T04:04:10.047Z,10.60
2022-12-14T04:06:40.788Z,10.60
2022-12-14T04:09:13.688Z,10.60
2022-12-14T04:12:01.249Z,10.70
2022-12-14T04:14:48.310Z,10.70
2022-12-14T04:17:38.485Z,10.70
2022-12-14T04:20:09.540Z,10.70
2022-12-14T04:22:39.667Z,10.80
2022-12-14T04:25:30.622Z,10.70
2022-12-14T04:28:00.851Z,10.80
2022-12-14T04:30:29.832Z,10.90
2022-12-14T04:33:21.525Z,10.90
2022-12-14T04:35:50.857Z,10.90
2022-12-14T04:38:21.600Z,10.80
2022-12-14T04:40:53.320Z,10.90
2022-12-14T04:43:24.765Z,10.90
2022-12-14T04:45:57.003Z,10.90
2022-12-14T04:48:30.384Z,10.90
2022-12-14T04:51:02.864Z,11.00
2022-12-14T04:53:32.018Z,11.00
2022-12-14T04:56:03.822Z,11.00
2022-12-14T04:58:32.766Z,11.00
2022-12-14T05:01:09.836Z,11.00
2022-12-14T05:03:45.704Z,11.00
2022-12-14T05:06:20.818Z,11.00
2022-12-14T05:08:58.797Z,11.00
2022-12-14T05:11:52.529Z,11.00
2022-12-14T05:14:20.949Z,11.00
2022-12-14T05:16:50.486Z,11.10
2022-12-14T05:19:20.287Z,11.10
2022-12-14T05:21:48.676Z,11.10
2022-12-14T05:24:17.449Z,11.00
2022-12-14T05:26:46.021Z,11.00
2022-12-14T05:29:15.068Z,11.10
2022-12-14T05:31:49.301Z,11.00
2022-12-14T05:34:18.465Z,11.10
2022-12-14T05:36:48.325Z,11.10
2022-12-14T05:39:16.954Z,11.00
2022-12-14T05:41:45.347Z,11.00
2022-12-14T05:44:13.745Z,10.90
2022-12-14T05:46:42.128Z,10.90
2022-12-14T05:49:10.844Z,11.00
2022-12-14T05:51:39.786Z,11.00
2022-12-14T05:54:09.660Z,11.00
2022-12-14T05:56:38.083Z,11.00
2022-12-14T05:59:06.531Z,11.10
2022-12-14T06:01:34.965Z,11.10
2022-12-14T06:04:03.432Z,11.10
2022-12-14T06:06:34.099Z,11.10
2022-12-14T06:09:02.553Z,11.10
2022-12-14T06:11:32.407Z,11.10
2022-12-14T06:14:00.743Z,11.00
2022-12-14T06:16:29.197Z,11.00
2022-12-14T06:18:58.480Z,11.00
2022-12-14T06:21:27.760Z,10.90
2022-12-14T06:23:56.849Z,10.90
2022-12-14T06:26:26.220Z,10.90
2022-12-14T06:28:56.199Z,10.90
2022-12-14T06:31:25.584Z,10.80
2022-12-14T06:33:54.751Z,10.70
2022-12-14T06:36:24.696Z,10.80
2022-12-14T06:38:53.486Z,10.80
2022-12-14T06:41:22.289Z,10.80
2022-12-14T06:43:50.860Z,10.80
2022-12-14T06:46:21.703Z,10.70
2022-12-14T06:48:51.069Z,10.70
2022-12-14T06:51:19.460Z,10.80
2022-12-14T06:53:51.007Z,10.80
2022-12-14T06:56:19.618Z,10.80
2022-12-14T06:58:48.075Z,10.80
2022-12-14T07:01:17.717Z,10.80
2022-12-14T07:03:49.817Z,10.80
2022-12-14T07:06:18.347Z,10.70
2022-12-14T07:08:47.164Z,10.60
2022-12-14T07:11:16.436Z,10.60
2022-12-14T07:13:45.048Z,10.60
2022-12-14T07:16:18.707Z,10.60
2022-12-14T07:18:47.135Z,10.60
2022-12-14T07:21:17.483Z,10.50
2022-12-14T07:23:46.432Z,10.50
2022-12-14T07:26:15.873Z,10.50
2022-12-14T07:28:44.575Z,10.50
2022-12-14T07:31:14.115Z,10.60
2022-12-14T07:33:42.857Z,10.60
2022-12-14T07:36:12.079Z,10.60
2022-12-14T07:38:42.190Z,10.60
2022-12-14T07:41:12.268Z,10.60
2022-12-14T07:43:41.527Z,10.60
2022-12-14T07:46:11.089Z,10.60
2022-12-14T07:48:39.735Z,10.60
2022-12-14T07:51:09.626Z,10.60
2022-12-14T07:53:38.950Z,10.60
2022-12-14T07:56:09.844Z,10.70
2022-12-14T07:58:38.624Z,10.70
2022-12-14T08:01:11.520Z,10.70
2022-12-14T08:03:40.537Z,10.70
2022-12-14T08:06:09.605Z,10.70
2022-12-14T08:08:37.970Z,10.70
2022-12-14T08:11:06.770Z,10.60
2022-12-14T08:13:38.664Z,10.70
2022-12-14T08:16:08.282Z,10.70
2022-12-14T08:18:36.854Z,10.80
2022-12-14T08:21:06.305Z,10.80
2022-12-14T08:23:35.002Z,10.80
2022-12-14T08:26:03.832Z,10.90
2022-12-14T08:28:33.157Z,10.90
2022-12-14T08:31:06.670Z,10.80
2022-12-14T08:33:35.391Z,10.90
2022-12-14T08:36:07.622Z,10.90
2022-12-14T08:38:36.179Z,10.90
2022-12-14T08:41:04.854Z,10.80
2022-12-14T08:43:33.702Z,10.80
2022-12-14T08:46:02.560Z,10.70
2022-12-14T08:48:32.500Z,10.70
2022-12-14T08:51:04.081Z,10.70
2022-12-14T08:53:32.952Z,10.70
2022-12-14T08:56:05.247Z,10.70
2022-12-14T08:58:34.506Z,10.70
2022-12-14T09:01:03.863Z,10.70
2022-12-14T09:03:34.081Z,10.70
2022-12-14T09:06:03.211Z,10.70
2022-12-14T09:08:32.596Z,10.70
2022-12-14T09:11:01.185Z,10.70
2022-12-14T09:13:30.233Z,10.70
2022-12-14T09:16:00.061Z,10.80
2022-12-14T09:18:29.633Z,10.80
2022-12-14T09:20:59.657Z,10.80
2022-12-14T09:23:29.599Z,10.80
2022-12-14T09:26:02.145Z,10.80
2022-12-14T09:28:31.400Z,10.80
2022-12-14T09:31:01.241Z,10.80
2022-12-14T09:33:30.276Z,10.80
2022-12-14T09:36:04.325Z,10.80
2022-12-14T09:38:33.559Z,10.80
2022-12-14T09:41:05.995Z,10.80
2022-12-14T09:43:41.027Z,10.70
2022-12-14T09:46:17.054Z,10.70
2022-12-14T09:48:45.699Z,10.70
2022-12-14T09:51:16.876Z,10.70
2022-12-14T09:53:46.556Z,10.70
2022-12-14T09:56:17.439Z,10.80
2022-12-14T09:58:51.467Z,10.90
2022-12-14T10:01:33.970Z,10.90
2022-12-14T10:04:06.227Z,10.80
2022-12-14T10:06:40.578Z,10.80
2022-12-14T10:09:13.642Z,10.90
2022-12-14T10:11:47.617Z,10.80
2022-12-14T10:14:19.880Z,10.70
2022-12-14T10:16:52.772Z,10.70
2022-12-14T10:19:28.352Z,10.80
2022-12-14T10:22:00.340Z,10.80
2022-12-14T10:24:31.925Z,10.80
2022-12-14T10:27:01.328Z,10.90
2022-12-14T10:29:32.735Z,10.90
2022-12-14T10:32:05.988Z,10.90
2022-12-14T10:34:34.811Z,10.90
2022-12-14T10:37:08.315Z,10.90
2022-12-14T10:39:44.085Z,10.90
2022-12-14T10:42:21.186Z,10.90
2022-12-14T10:45:09.772Z,10.90
2022-12-14T10:47:44.092Z,10.90
2022-12-14T10:50:17.030Z,10.90
2022-12-14T10:52:47.869Z,11.00
2022-12-14T10:55:18.481Z,11.00
2022-12-14T10:57:47.120Z,11.00
2022-12-14T11:00:22.931Z,11.10
2022-12-14T11:02:54.751Z,11.10
2022-12-14T11:05:35.788Z,11.20
2022-12-14T11:08:07.911Z,11.20
2022-12-14T11:10:37.137Z,11.20
2022-12-14T11:13:06.264Z,11.20
2022-12-14T11:15:35.927Z,11.20
2022-12-14T11:18:06.237Z,11.20
2022-12-14T11:20:35.228Z,11.20
2022-12-14T11:23:18.572Z,11.20
2022-12-14T11:25:48.475Z,11.10
2022-12-14T11:28:19.337Z,11.10
2022-12-14T11:30:58.615Z,11.10
2022-12-14T11:33:29.565Z,11.00
2022-12-14T11:35:57.981Z,11.00
2022-12-14T11:38:29.618Z,11.10
2022-12-14T11:40:58.540Z,11.10
2022-12-14T11:43:28.272Z,11.00
2022-12-14T11:45:57.843Z,10.90
2022-12-14T11:48:28.048Z,11.00
2022-12-14T11:50:57.493Z,10.80
2022-12-14T11:53:27.312Z,10.60
2022-12-14T11:55:57.541Z,10.50
2022-12-14T11:58:28.158Z,10.60
2022-12-14T12:00:59.700Z,10.50
2022-12-14T12:03:30.054Z,10.50
2022-12-14T12:06:02.480Z,10.70
2022-12-14T12:08:33.871Z,10.70
2022-12-14T12:11:04.119Z,10.90
2022-12-14T12:13:33.527Z,10.90
2022-12-14T12:16:02.869Z,10.90
2022-12-14T12:18:34.061Z,10.90
2022-12-14T12:21:05.641Z,10.90
2022-12-14T12:23:39.032Z,11.00
2022-12-14T12:26:12.310Z,11.00
2022-12-14T12:28:43.702Z,11.00
2022-12-14T12:31:15.999Z,11.10
2022-12-14T12:33:46.140Z,11.10
2022-12-14T12:36:23.350Z,11.10
2022-12-14T12:39:03.712Z,11.20
2022-12-14T12:41:41.450Z,11.20
2022-12-14T12:44:18.336Z,11.10
2022-12-14T12:47:22.687Z,10.90
2022-12-14T12:49:41.259Z,10.90
2022-12-14T12:52:15.632Z,11.00
2022-12-14T12:54:49.741Z,11.00
2022-12-14T12:57:18.616Z,11.10
2022-12-14T12:59:49.312Z,11.00
2022-12-14T13:02:23.089Z,11.00
2022-12-14T13:04:53.107Z,10.90
2022-12-14T13:07:24.367Z,11.00
2022-12-14T13:10:03.454Z,11.20
2022-12-14T13:12:36.107Z,11.20
2022-12-14T13:15:05.889Z,11.30
2022-12-14T13:17:38.622Z,11.30
2022-12-14T13:20:15.854Z,11.20
2022-12-14T13:22:44.432Z,11.20
2022-12-14T13:25:21.581Z,11.20
2022-12-14T13:27:58.552Z,11.30
2022-12-14T13:30:33.418Z,11.40
2022-12-14T13:33:11.972Z,11.40
2022-12-14T13:35:47.876Z,11.40
2022-12-14T13:38:31.005Z,11.30
2022-12-14T13:41:11.701Z,11.40
2022-12-14T13:43:48.863Z,11.40
2022-12-14T13:46:22.470Z,11.40
2022-12-14T13:48:52.221Z,11.40
2022-12-14T13:51:27.934Z,11.40
2022-12-14T13:53:59.186Z,11.40
2022-12-14T13:56:33.261Z,11.40
2022-12-14T13:59:04.285Z,11.50
2022-12-14T14:01:51.296Z,11.40
2022-12-14T14:04:20.888Z,11.40
2022-12-14T14:06:49.964Z,11.40
2022-12-14T14:09:36.732Z,11.40
2022-12-14T14:12:26.646Z,11.40
2022-12-14T14:14:58.282Z,11.40
2022-12-14T14:17:27.333Z,11.40
2022-12-14T14:19:57.711Z,11.40
2022-12-14T14:22:27.322Z,11.40
2022-12-14T14:24:57.273Z,11.50
2022-12-14T14:27:28.773Z,11.50
2022-12-14T14:29:58.058Z,11.60
2022-12-14T14:32:32.141Z,11.60
2022-12-14T14:35:01.111Z,11.50
2022-12-14T14:37:31.985Z,11.60
2022-12-14T14:40:26.223Z,11.60
2022-12-14T14:43:07.793Z,11.60
2022-12-14T14:45:40.415Z,11.50
2022-12-14T14:48:11.242Z,11.60
2022-12-14T14:50:41.116Z,11.50
2022-12-14T14:53:14.872Z,11.50
2022-12-14T14:55:59.503Z,11.60
2022-12-14T14:58:32.205Z,11.60
2022-12-14T15:01:09.036Z,11.60
2022-12-14T15:03:44.883Z,11.60
2022-12-14T15:06:15.709Z,11.60
2022-12-14T15:08:45.299Z,11.60
2022-12-14T15:11:16.665Z,11.50
2022-12-14T15:13:49.015Z,11.50
2022-12-14T15:16:25.018Z,11.50
2022-12-14T15:18:53.518Z,11.50
2022-12-14T15:21:21.964Z,11.50
2022-12-14T15:23:51.436Z,11.50
2022-12-14T15:26:20.875Z,11.50
2022-12-14T15:28:52.324Z,11.70
2022-12-14T15:31:28.056Z,11.70
2022-12-14T15:33:56.543Z,11.70
2022-12-14T15:36:28.788Z,11.60
2022-12-14T15:38:58.113Z,11.50
2022-12-14T15:41:27.700Z,11.40
2022-12-14T15:44:00.046Z,11.30
2022-12-14T15:46:29.800Z,11.10
2022-12-14T15:48:59.245Z,11.10
2022-12-14T15:51:29.953Z,11.10
2022-12-14T15:53:59.745Z,11.10
2022-12-14T15:56:29.672Z,11.00
2022-12-14T15:59:01.254Z,11.00
2022-12-14T16:01:32.519Z,10.90
2022-12-14T16:04:02.131Z,10.80
2022-12-14T16:06:31.327Z,10.80
2022-12-14T16:09:01.237Z,10.70
2022-12-14T16:11:33.134Z,10.80
2022-12-14T16:14:04.222Z,10.80
2022-12-14T16:16:32.869Z,10.90
2022-12-14T16:19:25.126Z,10.90
2022-12-14T16:21:51.107Z,10.70
2022-12-14T16:24:23.852Z,10.70
2022-12-14T16:26:56.680Z,10.70
2022-12-14T16:29:28.785Z,10.80
2022-12-14T16:32:03.992Z,10.80
2022-12-14T16:34:33.493Z,10.90
2022-12-14T16:37:30.924Z,10.90
2022-12-14T16:39:52.557Z,10.80
2022-12-14T16:42:21.723Z,10.90
2022-12-14T16:44:54.039Z,10.80
2022-12-14T16:47:27.102Z,10.90
2022-12-14T16:49:56.397Z,10.80
2022-12-14T16:52:27.063Z,10.90
2022-12-14T16:55:09.861Z,10.80
2022-12-14T16:57:39.639Z,10.80
2022-12-14T17:00:21.053Z,10.80
2022-12-14T17:02:55.166Z,10.70
2022-12-14T17:05:23.843Z,10.70
2022-12-14T17:07:52.332Z,10.80
2022-12-14T17:10:21.875Z,10.80
2022-12-14T17:12:50.487Z,10.70
2022-12-14T17:15:21.396Z,10.70
2022-12-14T17:17:51.145Z,10.70
2022-12-14T17:20:22.264Z,10.70
2022-12-14T17:22:51.195Z,10.80
2022-12-14T17:25:20.129Z,10.70
2022-12-14T17:27:49.430Z,10.70
2022-12-14T17:30:20.296Z,10.70
2022-12-14T17:32:50.492Z,10.70
2022-12-14T17:35:20.344Z,10.70
2022-12-14T17:37:49.533Z,10.70
2022-12-14T17:40:18.072Z,10.70
2022-12-14T17:42:50.623Z,10.70
2022-12-14T17:45:21.707Z,10.60
2022-12-14T17:47:51.536Z,10.60
2022-12-14T17:50:20.313Z,10.60
2022-12-14T17:52:50.457Z,10.60
2022-12-14T17:55:19.783Z,10.60
2022-12-14T17:57:48.409Z,10.50
2022-12-14T18:00:35.740Z,10.50
2022-12-14T18:03:05.945Z,10.60
2022-12-14T18:05:34.759Z,10.50
2022-12-14T18:08:03.190Z,10.60
2022-12-14T18:10:32.024Z,10.50
2022-12-14T18:13:01.725Z,10.50
2022-12-14T18:15:31.672Z,10.50
2022-12-14T18:18:00.078Z,10.50
2022-12-14T18:20:29.871Z,10.40
2022-12-14T18:22:58.311Z,10.40
2022-12-14T18:25:28.748Z,10.60
2022-12-14T18:27:57.398Z,10.50
2022-12-14T18:30:26.141Z,10.50
2022-12-14T18:32:55.550Z,10.50
2022-12-14T18:35:25.201Z,10.50
2022-12-14T18:37:55.091Z,10.50
2022-12-14T18:40:24.477Z,10.60
2022-12-14T18:42:52.953Z,10.60
2022-12-14T18:45:22.464Z,10.50
2022-12-14T18:47:51.376Z,10.40
2022-12-14T18:50:19.910Z,10.40
2022-12-14T18:52:48.407Z,10.30
2022-12-14T18:55:19.161Z,10.40
2022-12-14T18:57:48.169Z,10.40
2022-12-14T19:00:17.533Z,10.50
2022-12-14T19:02:49.558Z,10.50
2022-12-14T19:05:24.258Z,10.60
2022-12-14T19:07:54.499Z,10.60
2022-12-14T19:10:25.370Z,10.60
2022-12-14T19:12:53.912Z,10.70
2022-12-14T19:15:23.432Z,10.80
2022-12-14T19:17:52.329Z,10.80
2022-12-14T19:20:21.127Z,10.70
2022-12-14T19:22:49.802Z,10.70
2022-12-14T19:25:18.806Z,10.60
2022-12-14T19:30:38.000Z,10.80
2022-12-14T19:33:06.489Z,10.80
2022-12-14T19:35:34.872Z,10.80
2022-12-14T19:38:03.226Z,10.80
2022-12-14T19:40:31.641Z,10.90
2022-12-14T19:43:01.408Z,11.00
2022-12-14T19:45:29.769Z,11.00
2022-12-14T19:47:58.256Z,11.00
2022-12-14T19:50:26.642Z,11.00
2022-12-14T19:52:55.075Z,11.00
2022-12-14T19:55:23.537Z,11.00
2022-12-14T19:57:51.880Z,11.00
2022-12-14T20:00:21.776Z,11.10
2022-12-14T20:02:50.431Z,11.00
2022-12-14T20:05:19.132Z,11.00
2022-12-14T20:07:47.564Z,11.10
2022-12-14T20:10:15.956Z,11.10
2022-12-14T20:12:44.380Z,11.00
2022-12-14T20:15:13.363Z,11.00
2022-12-14T20:17:43.137Z,11.10
2022-12-14T20:20:12.087Z,11.00
2022-12-14T20:22:40.760Z,11.00
2022-12-14T20:25:09.369Z,11.00
2022-12-14T20:27:40.602Z,11.00
2022-12-14T20:30:11.612Z,11.00
2022-12-14T20:32:41.158Z,11.10
2022-12-14T20:35:12.146Z,11.10
2022-12-14T20:37:40.563Z,11.10
2022-12-14T20:40:09.752Z,11.20
2022-12-14T20:42:38.121Z,11.20
2022-12-14T20:45:07.616Z,11.20
2022-12-14T20:47:36.075Z,11.20
2022-12-14T20:50:04.607Z,11.20
2022-12-14T20:52:34.433Z,11.20
2022-12-14T20:55:02.849Z,11.10
2022-12-14T20:57:33.171Z,11.10
2022-12-14T21:00:01.657Z,11.10
2022-12-14T21:02:30.214Z,11.00
2022-12-14T21:04:58.635Z,11.00
2022-12-14T21:07:27.309Z,11.00
2022-12-14T21:09:57.168Z,11.00
2022-12-14T21:12:24.727Z,11.10
2022-12-14T21:14:53.979Z,11.10
2022-12-14T21:17:23.394Z,11.20
2022-12-14T21:19:51.861Z,11.20
2022-12-14T21:22:21.875Z,11.20
2022-12-14T21:25:07.637Z,11.20
2022-12-14T21:27:39.051Z,11.20
2022-12-14T21:30:08.779Z,11.20
2022-12-14T21:32:37.859Z,11.30
2022-12-14T21:35:06.894Z,11.20
2022-12-14T21:37:35.309Z,11.20
2022-12-14T21:40:03.948Z,11.20
2022-12-14T21:42:31.416Z,11.20
2022-12-14T21:45:01.248Z,11.10
2022-12-14T21:47:30.523Z,11.20
2022-12-14T21:49:58.952Z,11.20
2022-12-14T21:52:28.541Z,11.10
2022-12-14T21:54:58.661Z,11.10
2022-12-14T21:57:49.803Z,11.20
2022-12-14T22:00:20.669Z,11.40
2022-12-14T22:02:49.302Z,11.40
2022-12-14T22:05:17.940Z,11.40
2022-12-14T22:07:46.897Z,11.30
2022-12-14T22:10:17.757Z,11.20
2022-12-14T22:12:49.761Z,11.20
2022-12-14T22:15:18.146Z,11.10
2022-12-14T22:17:47.925Z,11.10
2022-12-14T22:20:16.259Z,11.10
2022-12-14T22:22:45.009Z,11.10
2022-12-14T22:25:13.386Z,11.10
2022-12-14T22:27:41.706Z,11.10
2022-12-14T22:30:12.140Z,11.20
2022-12-14T22:32:40.505Z,11.10
2022-12-14T22:35:10.637Z,11.20
2022-12-14T22:37:39.223Z,11.20
2022-12-14T22:40:08.373Z,11.20
2022-12-14T22:42:36.840Z,11.20
2022-12-14T22:45:05.558Z,11.10
2022-12-14T22:47:34.688Z,11.10
2022-12-14T22:50:03.076Z,11.20
2022-12-14T22:52:33.118Z,11.20
2022-12-14T22:55:02.027Z,11.20
2022-12-14T22:57:31.077Z,11.30
2022-12-14T23:00:01.794Z,11.30
2022-12-14T23:02:30.452Z,11.30
2022-12-14T23:04:58.914Z,11.20
2022-12-14T23:07:27.330Z,11.20
2022-12-14T23:10:14.530Z,11.30
2022-12-14T23:13:00.048Z,11.30
2022-12-14T23:15:45.933Z,11.30
2022-12-14T23:18:31.526Z,11.30
2022-12-14T23:21:17.020Z,11.30
2022-12-14T23:24:03.649Z,11.30
2022-12-14T23:26:51.957Z,11.30
2022-12-14T23:29:37.405Z,11.30
2022-12-14T23:32:23.399Z,11.30
2022-12-14T23:35:08.999Z,11.40
2022-12-14T23:37:55.031Z,11.40
2022-12-14T23:40:40.594Z,11.40
2022-12-14T23:43:29.280Z,11.40
2022-12-14T23:46:15.132Z,11.30
2022-12-14T23:49:00.751Z,11.30
2022-12-14T23:51:46.761Z,11.30
2022-12-14T23:54:32.750Z,11.30
2022-12-14T23:57:18.450Z,11.30
